createdAt,value
2022-11-05T04:36:35.150Z,6.8
2022-11-05T04:41:36.924Z,6.8
2022-11-05T04:46:38.520Z,5.66
2022-11-05T04:51:40.514Z,5.66
2022-11-05T04:56:42.319Z,8.99
2022-11-05T05:01:44.326Z,8.99
2022-11-05T05:06:46.367Z,6.32
2022-11-05T05:11:48.188Z,9.38
2022-11-05T05:16:49.944Z,9.38
2022-11-05T05:21:51.661Z,5.43
2022-11-05T05:26:53.388Z,5.43
2022-11-05T05:31:55.005Z,5.93
2022-11-05T05:36:57.192Z,5.93
2022-11-05T05:41:59.004Z,5.26
2022-11-05T05:47:00.696Z,5.26
2022-11-05T05:52:02.406Z,6.56
2022-11-05T05:57:04.837Z,6.56
2022-11-05T06:02:07.524Z,2.86
2022-11-05T06:07:09.265Z,2.86
2022-11-05T06:12:11.054Z,0
2022-11-05T06:17:12.869Z,0
2022-11-05T06:22:14.545Z,6.98
2022-11-05T06:27:16.268Z,6.98
2022-11-05T06:32:18.063Z,7.5
2022-11-05T06:37:19.877Z,7.5
2022-11-05T06:42:21.657Z,3.03
2022-11-05T06:47:23.470Z,4.12
2022-11-05T06:52:25.194Z,4.12
2022-11-05T06:57:26.985Z,5.36
2022-11-05T07:02:28.978Z,5.36
2022-11-05T07:07:31.129Z,4.64
2022-11-05T07:12:32.970Z,4.64
2022-11-05T07:17:34.692Z,4.37
2022-11-05T07:22:36.535Z,4.37
2022-11-05T07:27:38.416Z,9.27
2022-11-05T07:32:40.907Z,9.27
2022-11-05T07:37:43.179Z,6.54
2022-11-05T07:42:45.654Z,6.54
2022-11-05T07:47:48.627Z,5.03
2022-11-05T07:52:50.447Z,5.03
2022-11-05T07:57:52.513Z,7.52
2022-11-05T08:08:09.599Z,5.53
2022-11-05T08:13:13.928Z,5.53
2022-11-05T08:18:16.580Z,3.08
2022-11-05T08:23:18.363Z,4.44
2022-11-05T08:28:20.154Z,4.44
2022-11-05T08:33:22.085Z,5.54
2022-11-05T08:38:23.885Z,5.54
2022-11-05T08:43:25.758Z,6.23
2022-11-05T08:48:27.639Z,6.23
2022-11-05T08:53:29.286Z,4.61
2022-11-05T08:58:31.438Z,4.61
2022-11-05T09:03:33.177Z,7.52
2022-11-05T09:08:34.886Z,7.52
2022-11-05T09:13:38.130Z,5.8
2022-11-05T09:18:41.364Z,5.8
2022-11-05T09:23:43.515Z,5.69
2022-11-05T09:28:45.492Z,5.69
2022-11-05T09:33:47.306Z,6.19
2022-11-05T09:38:49.727Z,6.19
2022-11-05T09:43:53.496Z,4.49
2022-11-05T09:48:58.556Z,4.49
2022-11-05T09:54:00.629Z,5.08
2022-11-05T09:59:04.376Z,9.88
2022-11-05T10:04:08.013Z,9.88
2022-11-05T10:09:14.448Z,7.19
2022-11-05T10:14:19.519Z,7.19
2022-11-05T10:19:23.877Z,5.77
2022-11-05T10:24:25.638Z,5.77
2022-11-05T10:29:28.934Z,7.79
2022-11-05T10:34:32.239Z,7.79
2022-11-05T10:39:34.678Z,7.84
2022-11-05T10:44:40.404Z,7.84
2022-11-05T10:49:46.427Z,8
2022-11-05T10:54:48.819Z,8
2022-11-05T10:59:50.819Z,6.33
2022-11-05T11:04:53.371Z,6.33
2022-11-05T11:09:55.176Z,5.14
2022-11-05T11:15:01.774Z,5.14
2022-11-05T11:25:23.546Z,4.66
2022-11-05T11:30:25.971Z,4.66
2022-11-05T11:35:27.805Z,5.91
2022-11-05T11:40:30.945Z,5.91
2022-11-05T11:45:34.109Z,7.32
2022-11-05T11:50:38.501Z,7.32
2022-11-05T11:55:40.247Z,7.29
2022-11-05T12:00:46.305Z,7.29
2022-11-05T12:05:52.050Z,8
2022-11-05T12:10:57.235Z,8
2022-11-05T12:21:06.577Z,6.09
2022-11-05T12:31:19.830Z,4.08
2022-11-05T12:41:32.664Z,6.19
2022-11-05T12:46:38.197Z,6.19
2022-11-05T12:56:48.697Z,7.82
2022-11-05T13:01:55.383Z,4.81
2022-11-05T13:06:57.988Z,4.81
2022-11-05T13:12:03.043Z,2.62
2022-11-05T13:17:07.545Z,2.62
2022-11-05T13:22:14.248Z,4.69
2022-11-05T13:32:29.091Z,4.9
2022-11-05T13:37:32.561Z,4.9
2022-11-05T13:48:00.498Z,6.92
2022-11-05T13:53:12.268Z,6.82
2022-11-05T14:03:22.402Z,2.87
2022-11-05T14:08:26.205Z,6.35
2022-11-05T14:13:31.924Z,6.35
2022-11-05T14:18:37.915Z,4.11
2022-11-05T14:23:40.575Z,4.11
2022-11-05T14:28:44.603Z,3.54
2022-11-05T14:33:55.561Z,3.54
2022-11-05T14:39:05.513Z,4.82
2022-11-05T14:44:08.464Z,4.82
2022-11-05T14:49:16.471Z,4.78
2022-11-05T14:54:20.732Z,4.78
2022-11-05T14:59:34.307Z,7.41
2022-11-05T15:04:37.414Z,7.41
2022-11-05T15:09:42.239Z,8.6
2022-11-05T15:19:53.456Z,11.43
2022-11-05T15:24:56.134Z,7.59
2022-11-05T15:45:20.344Z,5.76
2022-11-05T15:50:22.283Z,5.76
2022-11-05T15:55:25.239Z,7.45
2022-11-05T16:00:27.934Z,7.45
2022-11-05T16:05:33.338Z,4.93
2022-11-05T16:10:38.142Z,4.93
2022-11-05T16:25:53.484Z,6.69
2022-11-05T16:30:56.670Z,6
2022-11-05T16:35:58.934Z,6
2022-11-05T16:41:02.033Z,6.45
2022-11-05T16:46:04.344Z,6.45
2022-11-05T16:51:07.261Z,5.06
2022-11-05T16:56:14.090Z,5.06
2022-11-05T17:01:18.834Z,3.13
2022-11-05T17:11:28.186Z,5.96
2022-11-05T17:16:31.701Z,5.96
2022-11-05T17:21:34.155Z,4.4
2022-11-05T17:26:36.677Z,4.4
2022-11-05T17:31:41.683Z,5.35
2022-11-05T17:36:45.276Z,5.35
2022-11-05T17:41:49.191Z,4.9
2022-11-05T17:46:53.213Z,4.9
2022-11-05T17:51:55.905Z,3.48
2022-11-05T17:56:58.356Z,3.48
2022-11-05T18:02:01.788Z,3.67
2022-11-05T18:07:04.733Z,3.32
2022-11-05T18:12:10.869Z,3.32
2022-11-05T18:17:17.663Z,2.56
2022-11-05T18:22:23.787Z,2.56
2022-11-05T18:27:26.765Z,2.19
2022-11-05T18:32:30.217Z,2.19
2022-11-05T18:37:33.061Z,3.52
2022-11-05T18:42:36.021Z,3.52
2022-11-05T18:47:40.048Z,2.54
2022-11-05T18:52:45.635Z,2.54
2022-11-05T18:57:48.955Z,2.32
2022-11-05T19:02:52.636Z,2.32
2022-11-05T19:07:57.108Z,2.81
2022-11-05T19:13:00.396Z,2.81
2022-11-05T19:18:02.626Z,1.92
2022-11-05T19:23:05.013Z,1.92
2022-11-05T19:28:07.704Z,0.96
2022-11-05T19:33:10.600Z,1.07
2022-11-05T19:38:15.091Z,1.07
2022-11-05T19:43:18.099Z,2.75
2022-11-05T19:48:24.238Z,2.75
2022-11-05T19:53:27.509Z,0
2022-11-05T19:58:30.128Z,0
2022-11-05T20:03:33.454Z,2.65
2022-11-05T20:13:43.454Z,4.78
2022-11-05T20:18:46.601Z,4.78
2022-11-05T20:23:51.513Z,3.2
2022-11-05T20:28:56.222Z,3.2
2022-11-05T20:33:59.903Z,4.4
2022-11-05T20:39:02.668Z,4.4
2022-11-05T20:44:05.277Z,2.9
2022-11-05T20:49:08.364Z,2.9
2022-11-05T20:54:10.845Z,2.37
2022-11-05T20:59:13.591Z,2.78
2022-11-05T21:04:18.332Z,2.78
2022-11-05T21:09:21.458Z,2.67
2022-11-05T21:14:27.279Z,2.67
2022-11-05T21:19:34.852Z,2.8
2022-11-05T21:24:43.044Z,2.8
2022-11-05T21:29:49.601Z,2.9
2022-11-05T21:34:59.686Z,2.9
2022-11-05T21:40:05.456Z,2.03
2022-11-05T21:45:10.191Z,2.03
2022-11-05T21:50:23.400Z,2.03
2022-11-05T21:55:28.984Z,2.03
2022-11-05T22:00:31.077Z,2.03
2022-11-05T22:05:33.303Z,2.03
2022-11-05T22:10:35.076Z,2.03
2022-11-05T22:15:37.034Z,2.03
2022-11-05T22:20:39.062Z,2.03
2022-11-05T22:25:41.192Z,2.03
2022-11-05T22:30:42.950Z,2.03
2022-11-05T22:35:44.618Z,2.03
